createdAt,value
2022-07-28T00:00:51.645Z,977.82
2022-07-28T00:01:51.669Z,977.82
2022-07-28T00:02:51.540Z,977.86
2022-07-28T00:03:51.412Z,977.84
2022-07-28T00:04:51.339Z,977.84
2022-07-28T00:05:51.260Z,977.84
2022-07-28T00:06:51.179Z,977.84
2022-07-28T00:07:51.103Z,977.85
2022-07-28T00:08:51.031Z,977.81
2022-07-28T00:09:50.949Z,977.83
2022-07-28T00:10:50.874Z,977.87
2022-07-28T00:11:54.540Z,977.85
2022-07-28T00:12:50.722Z,977.81
2022-07-28T00:13:50.643Z,977.83
2022-07-28T00:14:50.563Z,977.80
2022-07-28T00:15:50.540Z,977.82
2022-07-28T00:16:50.446Z,977.75
2022-07-28T00:17:50.334Z,977.79
2022-07-28T00:18:50.260Z,977.74
2022-07-28T00:19:50.192Z,977.73
2022-07-28T00:20:50.107Z,977.73
2022-07-28T00:21:50.039Z,977.71
2022-07-28T00:22:49.948Z,977.74
2022-07-28T00:23:49.876Z,977.75
2022-07-28T00:24:49.794Z,977.77
2022-07-28T00:25:49.720Z,977.78
2022-07-28T00:26:49.639Z,977.77
2022-07-28T00:27:49.568Z,977.79
2022-07-28T00:28:49.489Z,977.78
2022-07-28T00:29:51.058Z,977.76
2022-07-28T00:30:49.333Z,977.78
2022-07-28T00:31:49.327Z,977.79
2022-07-28T00:32:49.177Z,977.80
2022-07-28T00:33:49.146Z,977.77
2022-07-28T00:34:49.024Z,977.80
2022-07-28T00:35:48.946Z,977.81
2022-07-28T00:36:48.875Z,977.81
2022-07-28T00:37:49.139Z,977.84
2022-07-28T00:38:48.968Z,977.85
2022-07-28T00:39:48.638Z,977.85
2022-07-28T00:40:48.567Z,977.87
2022-07-28T00:41:48.489Z,977.86
2022-07-28T00:42:48.409Z,977.89
2022-07-28T00:43:48.331Z,977.86
2022-07-28T00:44:48.256Z,977.83
2022-07-28T00:45:48.175Z,977.86
2022-07-28T00:46:48.192Z,977.86
2022-07-28T00:47:48.025Z,977.86
2022-07-28T00:48:47.969Z,977.85
2022-07-28T00:49:47.872Z,977.82
2022-07-28T00:50:47.792Z,977.83
2022-07-28T00:51:47.715Z,977.82
2022-07-28T00:52:47.643Z,977.83
2022-07-28T00:53:47.562Z,977.84
2022-07-28T00:54:47.486Z,977.86
2022-07-28T00:56:05.300Z,977.88
2022-07-28T00:56:47.336Z,977.86
2022-07-28T00:57:47.252Z,977.83
2022-07-28T00:58:47.171Z,977.86
2022-07-28T00:59:47.097Z,977.84
2022-07-28T01:00:47.019Z,977.82
2022-07-28T01:01:47.045Z,977.84
2022-07-28T01:02:46.973Z,977.81
2022-07-28T01:03:46.792Z,977.84
2022-07-28T01:04:46.713Z,977.82
2022-07-28T01:05:46.633Z,977.79
2022-07-28T01:06:46.558Z,977.76
2022-07-28T01:07:46.477Z,977.74
2022-07-28T01:08:46.398Z,977.71
2022-07-28T01:09:46.326Z,977.71
2022-07-28T01:10:46.253Z,977.67
2022-07-28T01:11:46.170Z,977.72
2022-07-28T01:12:46.090Z,977.69
2022-07-28T01:13:46.022Z,977.71
2022-07-28T01:14:45.938Z,977.70
2022-07-28T01:15:45.917Z,977.68
2022-07-28T01:16:45.785Z,977.67
2022-07-28T01:17:45.703Z,977.70
2022-07-28T01:18:45.628Z,977.62
2022-07-28T01:19:45.551Z,977.64
2022-07-28T01:20:45.477Z,977.62
2022-07-28T01:21:45.396Z,977.61
2022-07-28T01:22:45.317Z,977.59
2022-07-28T01:23:45.242Z,977.54
2022-07-28T01:24:45.164Z,977.58
2022-07-28T01:25:48.447Z,977.58
2022-07-28T01:26:45.012Z,977.59
2022-07-28T01:27:44.930Z,977.61
2022-07-28T01:28:44.855Z,977.63
2022-07-28T01:29:44.777Z,977.63
2022-07-28T01:30:44.741Z,977.65
2022-07-28T01:31:44.716Z,977.59
2022-07-28T01:32:44.544Z,977.58
2022-07-28T01:33:44.467Z,977.60
2022-07-28T01:34:44.391Z,977.62
2022-07-28T01:35:44.313Z,977.63
2022-07-28T01:36:44.234Z,977.63
2022-07-28T01:37:44.159Z,977.65
2022-07-28T01:38:44.078Z,977.65
2022-07-28T01:39:44.005Z,977.69
2022-07-28T01:40:43.921Z,977.68
2022-07-28T01:41:43.853Z,977.66
2022-07-28T01:42:43.769Z,977.64
2022-07-28T01:43:43.695Z,977.62
2022-07-28T01:44:43.614Z,977.60
2022-07-28T01:45:43.536Z,977.57
2022-07-28T01:46:43.513Z,977.56
2022-07-28T01:47:43.382Z,977.56
2022-07-28T01:48:43.381Z,977.60
2022-07-28T01:49:43.225Z,977.58
2022-07-28T01:50:43.148Z,977.57
2022-07-28T01:51:43.072Z,977.57
2022-07-28T01:52:42.994Z,977.55
2022-07-28T01:53:42.917Z,977.56
2022-07-28T01:54:42.837Z,977.54
2022-07-28T01:55:42.766Z,977.52
2022-07-28T01:56:42.686Z,977.48
2022-07-28T01:57:42.609Z,977.49
2022-07-28T01:58:42.527Z,977.49
2022-07-28T01:59:42.452Z,977.46
2022-07-28T02:00:42.374Z,977.44
2022-07-28T02:01:42.412Z,977.42
2022-07-28T02:02:42.223Z,977.46
2022-07-28T02:03:42.156Z,977.42
2022-07-28T02:04:42.113Z,977.47
2022-07-28T02:05:41.989Z,977.45
2022-07-28T02:06:41.910Z,977.44
2022-07-28T02:07:41.834Z,977.42
2022-07-28T02:08:41.753Z,977.37
2022-07-28T02:09:41.678Z,977.39
2022-07-28T02:10:41.597Z,977.37
2022-07-28T02:11:41.521Z,977.36
2022-07-28T02:12:41.451Z,977.33
2022-07-28T02:13:41.370Z,977.30
2022-07-28T02:14:41.286Z,977.28
2022-07-28T02:15:41.305Z,977.25
2022-07-28T02:16:41.134Z,977.24
2022-07-28T02:17:41.060Z,977.25
2022-07-28T02:18:40.981Z,977.23
2022-07-28T02:19:40.905Z,977.23
2022-07-28T02:20:40.821Z,977.25
2022-07-28T02:21:40.747Z,977.24
2022-07-28T02:22:40.672Z,977.27
2022-07-28T02:23:40.590Z,977.25
2022-07-28T02:24:40.512Z,977.27
2022-07-28T02:25:40.437Z,977.26
2022-07-28T02:26:40.364Z,977.20
2022-07-28T02:27:40.286Z,977.20
2022-07-28T02:28:40.207Z,977.19
2022-07-28T02:29:50.729Z,977.17
2022-07-28T02:30:40.087Z,977.15
2022-07-28T02:31:41.980Z,977.14
2022-07-28T02:32:40.888Z,977.12
2022-07-28T02:34:00.314Z,977.11
2022-07-28T02:34:39.739Z,977.07
2022-07-28T02:35:39.663Z,977.11
2022-07-28T02:36:41.479Z,977.12
2022-07-28T02:37:39.505Z,977.13
2022-07-28T02:38:39.427Z,977.10
2022-07-28T02:39:39.354Z,977.09
2022-07-28T02:40:39.277Z,977.13
2022-07-28T02:41:39.207Z,977.11
2022-07-28T02:42:39.119Z,977.10
2022-07-28T02:43:49.028Z,977.11
2022-07-28T02:44:38.965Z,977.07
2022-07-28T02:45:38.887Z,977.09
2022-07-28T02:46:38.850Z,977.08
2022-07-28T02:47:38.738Z,977.10
2022-07-28T02:48:38.708Z,977.06
2022-07-28T02:49:38.575Z,977.08
2022-07-28T02:50:38.496Z,977.07
2022-07-28T02:51:38.429Z,977.08
2022-07-28T02:52:38.346Z,977.06
2022-07-28T02:53:38.265Z,977.06
2022-07-28T02:54:38.189Z,977.05
2022-07-28T02:55:38.113Z,977.04
2022-07-28T02:56:38.033Z,977.02
2022-07-28T02:57:37.964Z,977.02
2022-07-28T02:58:37.892Z,977.01
2022-07-28T02:59:37.802Z,976.99
2022-07-28T03:00:37.723Z,976.97
2022-07-28T03:01:37.716Z,977.00
2022-07-28T03:02:37.570Z,977.00
2022-07-28T03:03:41.298Z,976.99
2022-07-28T03:04:37.476Z,977.00
2022-07-28T03:05:37.382Z,977.03
2022-07-28T03:06:37.256Z,977.04
2022-07-28T03:07:37.184Z,977.07
2022-07-28T03:08:37.107Z,977.02
2022-07-28T03:09:37.025Z,977.03
2022-07-28T03:10:36.949Z,977.01
2022-07-28T03:11:36.874Z,977.00
2022-07-28T03:12:36.802Z,977.01
2022-07-28T03:13:36.716Z,977.00
2022-07-28T03:14:36.642Z,977.01
2022-07-28T03:15:36.564Z,977.05
2022-07-28T03:16:36.510Z,977.07
2022-07-28T03:17:36.406Z,977.07
2022-07-28T03:18:36.328Z,977.07
2022-07-28T03:19:36.252Z,977.07
2022-07-28T03:20:36.169Z,977.10
2022-07-28T03:21:36.092Z,977.09
2022-07-28T03:22:36.015Z,977.10
2022-07-28T03:23:35.968Z,977.12
2022-07-28T03:24:35.861Z,977.13
2022-07-28T03:25:35.784Z,977.09
2022-07-28T03:26:35.707Z,977.10
2022-07-28T03:27:35.630Z,977.11
2022-07-28T03:28:35.561Z,977.14
2022-07-28T03:29:35.479Z,977.11
2022-07-28T03:30:35.445Z,977.12
2022-07-28T03:31:35.317Z,977.14
2022-07-28T03:32:35.245Z,977.13
2022-07-28T03:33:35.163Z,977.13
2022-07-28T03:34:35.082Z,977.15
2022-07-28T03:35:35.008Z,977.14
2022-07-28T03:36:34.931Z,977.14
2022-07-28T03:37:34.855Z,977.15
2022-07-28T03:38:34.774Z,977.15
2022-07-28T03:39:34.694Z,977.18
2022-07-28T03:40:34.617Z,977.17
2022-07-28T03:41:34.542Z,977.16
2022-07-28T03:42:34.461Z,977.17
2022-07-28T03:43:34.384Z,977.20
2022-07-28T03:44:34.307Z,977.23
2022-07-28T03:45:34.257Z,977.21
2022-07-28T03:46:34.185Z,977.25
2022-07-28T03:47:34.078Z,977.24
2022-07-28T03:48:34.040Z,977.23
2022-07-28T03:49:33.916Z,977.21
2022-07-28T03:50:33.844Z,977.22
2022-07-28T03:51:33.762Z,977.22
2022-07-28T03:52:33.690Z,977.19
2022-07-28T03:53:33.607Z,977.18
2022-07-28T03:54:33.529Z,977.15
2022-07-28T03:55:33.450Z,977.16
2022-07-28T03:56:33.381Z,977.17
2022-07-28T03:57:33.297Z,977.15
2022-07-28T03:58:33.222Z,977.14
2022-07-28T03:59:33.142Z,977.14
2022-07-28T04:00:33.064Z,977.17
2022-07-28T04:01:33.088Z,977.15
2022-07-28T04:02:32.967Z,977.15
2022-07-28T04:03:43.228Z,977.14
2022-07-28T04:04:32.752Z,977.16
2022-07-28T04:05:32.677Z,977.17
2022-07-28T04:06:32.594Z,977.17
2022-07-28T04:07:32.519Z,977.14
2022-07-28T04:08:32.443Z,977.20
2022-07-28T04:09:32.364Z,977.19
2022-07-28T04:10:32.284Z,977.19
2022-07-28T04:11:32.209Z,977.20
2022-07-28T04:12:32.132Z,977.19
2022-07-28T04:13:32.141Z,977.16
2022-07-28T04:14:31.976Z,977.19
2022-07-28T04:15:31.898Z,977.16
2022-07-28T04:16:31.860Z,977.18
2022-07-28T04:17:31.740Z,977.17
2022-07-28T04:18:31.671Z,977.18
2022-07-28T04:19:31.584Z,977.16
2022-07-28T04:20:31.506Z,977.18
2022-07-28T04:21:31.437Z,977.17
2022-07-28T04:22:31.348Z,977.18
2022-07-28T04:23:31.281Z,977.19
2022-07-28T04:24:31.196Z,977.23
2022-07-28T04:25:31.120Z,977.23
2022-07-28T04:26:31.038Z,977.21
2022-07-28T04:27:30.965Z,977.23
2022-07-28T04:28:30.882Z,977.23
2022-07-28T04:29:30.805Z,977.24
2022-07-28T04:30:30.777Z,977.23
2022-07-28T04:31:30.724Z,977.25
2022-07-28T04:32:30.572Z,977.26
2022-07-28T04:33:30.499Z,977.29
2022-07-28T04:34:30.416Z,977.27
2022-07-28T04:35:30.345Z,977.28
2022-07-28T04:36:30.259Z,977.27
2022-07-28T04:37:32.560Z,977.27
2022-07-28T04:38:30.110Z,977.27
2022-07-28T04:39:30.031Z,977.30
2022-07-28T04:40:29.951Z,977.26
2022-07-28T04:41:29.875Z,977.26
2022-07-28T04:42:29.794Z,977.24
2022-07-28T04:43:29.714Z,977.27
2022-07-28T04:44:29.639Z,977.27
2022-07-28T04:45:29.565Z,977.27
2022-07-28T04:46:29.546Z,977.28
2022-07-28T04:47:29.405Z,977.27
2022-07-28T04:48:29.327Z,977.26
2022-07-28T04:49:29.252Z,977.24
2022-07-28T04:50:29.167Z,977.26
2022-07-28T04:51:29.096Z,977.26
2022-07-28T04:52:29.018Z,977.29
2022-07-28T04:53:28.935Z,977.27
2022-07-28T04:54:28.856Z,977.29
2022-07-28T04:55:28.781Z,977.30
2022-07-28T04:56:28.705Z,977.30
2022-07-28T04:57:28.627Z,977.29
2022-07-28T04:58:31.024Z,977.28
2022-07-28T04:59:28.471Z,977.28
2022-07-28T05:00:28.391Z,977.28
2022-07-28T05:01:28.384Z,977.30
2022-07-28T05:02:28.239Z,977.30
2022-07-28T05:03:30.493Z,977.33
2022-07-28T05:04:28.128Z,977.30
2022-07-28T05:05:28.005Z,977.32
2022-07-28T05:06:27.927Z,977.28
2022-07-28T05:07:27.848Z,977.28
2022-07-28T05:08:27.773Z,977.30
2022-07-28T05:09:27.690Z,977.25
2022-07-28T05:10:27.615Z,977.26
2022-07-28T05:11:27.537Z,977.29
2022-07-28T05:12:27.465Z,977.26
2022-07-28T05:13:33.395Z,977.27
2022-07-28T05:14:27.304Z,977.29
2022-07-28T05:15:27.229Z,977.28
2022-07-28T05:16:27.198Z,977.29
2022-07-28T05:17:27.070Z,977.26
2022-07-28T05:18:26.990Z,977.26
2022-07-28T05:19:26.915Z,977.30
2022-07-28T05:20:26.841Z,977.29
2022-07-28T05:21:26.760Z,977.32
2022-07-28T05:22:26.681Z,977.27
2022-07-28T05:23:26.606Z,977.30
2022-07-28T05:24:26.524Z,977.29
2022-07-28T05:25:26.449Z,977.31
2022-07-28T05:26:26.368Z,977.29
2022-07-28T05:27:26.297Z,977.29
2022-07-28T05:28:26.216Z,977.28
2022-07-28T05:29:26.137Z,977.27
2022-07-28T05:30:26.055Z,977.26
2022-07-28T05:31:26.019Z,977.27
2022-07-28T05:32:25.940Z,977.26
2022-07-28T05:33:31.958Z,977.26
2022-07-28T05:34:25.756Z,977.27
2022-07-28T05:35:25.671Z,977.27
2022-07-28T05:36:25.595Z,977.26
2022-07-28T05:37:25.514Z,977.26
2022-07-28T05:38:25.445Z,977.26
2022-07-28T05:39:25.361Z,977.26
2022-07-28T05:40:25.282Z,977.26
2022-07-28T05:41:25.209Z,977.27
2022-07-28T05:42:25.133Z,977.28
2022-07-28T05:43:25.054Z,977.27
2022-07-28T05:44:24.980Z,977.28
2022-07-28T05:45:24.953Z,977.29
2022-07-28T05:46:24.876Z,977.25
2022-07-28T05:47:24.741Z,977.29
2022-07-28T05:48:24.665Z,977.28
2022-07-28T05:49:24.678Z,977.31
2022-07-28T05:50:24.508Z,977.32
2022-07-28T05:51:24.434Z,977.32
2022-07-28T05:52:24.358Z,977.33
2022-07-28T05:53:24.284Z,977.30
2022-07-28T05:54:24.204Z,977.33
2022-07-28T05:55:24.124Z,977.33
2022-07-28T05:56:24.048Z,977.27
2022-07-28T05:57:23.976Z,977.29
2022-07-28T05:58:23.890Z,977.29
2022-07-28T05:59:23.813Z,977.32
2022-07-28T06:00:23.736Z,977.35
2022-07-28T06:01:23.733Z,977.37
2022-07-28T06:02:23.636Z,977.34
2022-07-28T06:03:23.507Z,977.36
2022-07-28T06:04:27.297Z,977.33
2022-07-28T06:05:23.354Z,977.30
2022-07-28T06:06:23.274Z,977.33
2022-07-28T06:07:23.201Z,977.32
2022-07-28T06:08:23.118Z,977.39
2022-07-28T06:09:23.044Z,977.38
2022-07-28T06:10:22.967Z,977.39
2022-07-28T06:11:23.212Z,977.39
2022-07-28T06:12:22.814Z,977.38
2022-07-28T06:13:22.736Z,977.39
2022-07-28T06:14:22.659Z,977.35
2022-07-28T06:15:22.588Z,977.40
2022-07-28T06:16:22.641Z,977.39
2022-07-28T06:17:22.428Z,977.43
2022-07-28T06:18:22.357Z,977.44
2022-07-28T06:19:22.274Z,977.46
2022-07-28T06:20:22.204Z,977.44
2022-07-28T06:21:22.118Z,977.47
2022-07-28T06:22:22.048Z,977.45
2022-07-28T06:23:21.969Z,977.46
2022-07-28T06:24:21.897Z,977.51
2022-07-28T06:25:21.815Z,977.52
2022-07-28T06:26:23.577Z,977.48
2022-07-28T06:27:21.659Z,977.51
2022-07-28T06:28:21.586Z,977.53
2022-07-28T06:29:21.507Z,977.51
2022-07-28T06:30:21.438Z,977.55
2022-07-28T06:31:21.421Z,977.51
2022-07-28T06:32:21.279Z,977.54
2022-07-28T06:33:21.264Z,977.55
2022-07-28T06:34:21.139Z,977.58
2022-07-28T06:35:21.047Z,977.56
2022-07-28T06:36:20.974Z,977.54
2022-07-28T06:37:20.897Z,977.58
2022-07-28T06:38:20.818Z,977.60
2022-07-28T06:39:20.745Z,977.62
2022-07-28T06:40:20.670Z,977.63
2022-07-28T06:41:20.593Z,977.58
2022-07-28T06:42:20.510Z,977.60
2022-07-28T06:43:20.438Z,977.57
2022-07-28T06:44:20.667Z,977.53
2022-07-28T06:45:21.245Z,977.54
2022-07-28T06:46:20.320Z,977.51
2022-07-28T06:47:20.206Z,977.51
2022-07-28T06:48:20.054Z,977.50
2022-07-28T06:49:20.216Z,977.50
2022-07-28T06:50:26.223Z,977.50
2022-07-28T06:51:19.896Z,977.50
2022-07-28T06:52:19.748Z,977.49
2022-07-28T06:53:19.675Z,977.50
2022-07-28T06:54:19.831Z,977.47
2022-07-28T06:55:19.520Z,977.49
2022-07-28T06:56:19.444Z,977.50
2022-07-28T06:57:19.366Z,977.50
2022-07-28T06:58:19.290Z,977.48
2022-07-28T06:59:19.251Z,977.50
2022-07-28T07:00:19.153Z,977.51
2022-07-28T07:01:19.101Z,977.50
2022-07-28T07:02:18.986Z,977.50
2022-07-28T07:03:18.912Z,977.51
2022-07-28T07:04:19.327Z,977.50
2022-07-28T07:05:18.760Z,977.48
2022-07-28T07:06:18.684Z,977.47
2022-07-28T07:07:18.613Z,977.47
2022-07-28T07:08:18.530Z,977.48
2022-07-28T07:09:18.458Z,977.46
2022-07-28T07:10:18.380Z,977.44
2022-07-28T07:11:18.318Z,977.42
2022-07-28T07:12:18.227Z,977.45
2022-07-28T07:13:18.159Z,977.45
2022-07-28T07:14:18.755Z,977.47
2022-07-28T07:15:18.002Z,977.44
2022-07-28T07:16:17.986Z,977.47
2022-07-28T07:17:17.856Z,977.48
2022-07-28T07:18:17.770Z,977.49
2022-07-28T07:19:17.700Z,977.49
2022-07-28T07:20:18.374Z,977.53
2022-07-28T07:21:17.550Z,977.49
2022-07-28T07:22:17.468Z,977.45
2022-07-28T07:23:17.397Z,977.41
2022-07-28T07:24:17.758Z,977.40
2022-07-28T07:25:17.251Z,977.45
2022-07-28T07:26:17.176Z,977.45
2022-07-28T07:27:17.099Z,977.40
2022-07-28T07:28:17.019Z,977.43
2022-07-28T07:29:16.948Z,977.47
2022-07-28T07:30:16.874Z,977.45
2022-07-28T07:31:16.843Z,977.48
2022-07-28T07:32:16.717Z,977.44
2022-07-28T07:33:16.643Z,977.39
2022-07-28T07:34:17.100Z,977.41
2022-07-28T07:35:16.494Z,977.35
2022-07-28T07:36:16.419Z,977.29
2022-07-28T07:37:16.342Z,977.30
2022-07-28T07:38:16.269Z,977.31
2022-07-28T07:39:16.195Z,977.29
2022-07-28T07:40:16.117Z,977.25
2022-07-28T07:41:16.043Z,977.28
2022-07-28T07:42:15.970Z,977.27
2022-07-28T07:43:15.896Z,977.22
2022-07-28T07:44:16.162Z,977.25
2022-07-28T07:45:15.750Z,977.27
2022-07-28T07:46:15.718Z,977.23
2022-07-28T07:47:15.594Z,977.24
2022-07-28T07:48:15.523Z,977.21
2022-07-28T07:49:15.478Z,977.22
2022-07-28T07:50:15.378Z,977.21
2022-07-28T07:51:15.862Z,977.18
2022-07-28T07:52:15.226Z,977.18
2022-07-28T07:53:15.152Z,977.22
2022-07-28T07:54:15.373Z,977.18
2022-07-28T07:55:15.005Z,977.15
2022-07-28T07:56:14.928Z,977.13
2022-07-28T07:57:14.854Z,977.14
2022-07-28T07:58:14.779Z,977.15
2022-07-28T07:59:14.710Z,977.16
2022-07-28T08:00:29.032Z,977.19
2022-07-28T08:01:14.583Z,977.18
2022-07-28T08:02:14.542Z,977.17
2022-07-28T08:03:14.412Z,977.17
2022-07-28T08:04:14.825Z,977.16
2022-07-28T08:05:14.263Z,977.14
2022-07-28T08:06:14.191Z,977.11
2022-07-28T08:07:14.119Z,977.12
2022-07-28T08:08:14.044Z,977.14
2022-07-28T08:09:13.969Z,977.11
2022-07-28T08:10:13.900Z,977.10
2022-07-28T08:11:13.823Z,977.12
2022-07-28T08:12:13.756Z,977.08
2022-07-28T08:13:13.676Z,977.11
2022-07-28T08:14:13.914Z,977.15
2022-07-28T08:15:13.531Z,977.18
2022-07-28T08:16:13.520Z,977.15
2022-07-28T08:17:13.390Z,977.16
2022-07-28T08:18:13.313Z,977.16
2022-07-28T08:19:13.243Z,977.16
2022-07-28T08:20:13.174Z,977.13
2022-07-28T08:21:13.161Z,977.19
2022-07-28T08:22:13.023Z,977.20
2022-07-28T08:23:12.949Z,977.19
2022-07-28T08:24:13.104Z,977.14
2022-07-28T08:25:12.814Z,977.15
2022-07-28T08:26:12.733Z,977.13
2022-07-28T08:27:12.662Z,977.20
2022-07-28T08:28:12.585Z,977.23
2022-07-28T08:29:12.513Z,977.19
2022-07-28T08:30:12.446Z,977.13
2022-07-28T08:31:12.404Z,977.11
2022-07-28T08:32:12.296Z,977.10
2022-07-28T08:33:12.229Z,977.11
2022-07-28T08:34:31.337Z,977.15
2022-07-28T08:35:32.428Z,977.14
2022-07-28T08:36:12.011Z,977.14
2022-07-28T08:37:11.936Z,977.16
2022-07-28T08:38:11.865Z,977.14
2022-07-28T08:39:11.798Z,977.14
2022-07-28T08:40:11.721Z,977.17
2022-07-28T08:41:11.650Z,977.20
2022-07-28T08:42:11.581Z,977.19
2022-07-28T08:43:11.513Z,977.13
2022-07-28T08:44:11.546Z,977.22
2022-07-28T08:45:11.365Z,977.11
2022-07-28T08:46:11.353Z,977.11
2022-07-28T08:47:11.221Z,977.14
2022-07-28T08:48:11.148Z,977.17
2022-07-28T08:49:11.189Z,977.05
2022-07-28T08:50:11.011Z,977.06
2022-07-28T08:51:10.937Z,977.05
2022-07-28T08:52:10.864Z,977.09
2022-07-28T08:53:10.794Z,977.01
2022-07-28T08:54:10.865Z,977.07
2022-07-28T08:55:10.662Z,977.06
2022-07-28T08:56:10.580Z,977.00
2022-07-28T08:57:10.512Z,977.05
2022-07-28T08:58:10.436Z,977.02
2022-07-28T08:59:10.366Z,977.00
2022-07-28T09:00:10.293Z,977.01
2022-07-28T09:01:10.221Z,976.99
2022-07-28T09:02:10.188Z,977.00
2022-07-28T09:03:10.137Z,976.98
2022-07-28T09:04:10.012Z,977.00
2022-07-28T09:05:09.940Z,977.01
2022-07-28T09:06:09.873Z,977.03
2022-07-28T09:07:09.804Z,976.99
2022-07-28T09:08:09.727Z,976.99
2022-07-28T09:09:09.656Z,977.01
2022-07-28T09:10:09.591Z,977.00
2022-07-28T09:11:09.517Z,977.01
2022-07-28T09:12:09.447Z,977.05
2022-07-28T09:13:09.376Z,977.02
2022-07-28T09:14:09.304Z,977.01
2022-07-28T09:15:09.236Z,977.05
2022-07-28T09:16:09.212Z,977.04
2022-07-28T09:17:09.094Z,977.11
2022-07-28T09:18:09.021Z,977.05
2022-07-28T09:19:08.961Z,977.09
2022-07-28T09:20:11.131Z,977.10
2022-07-28T09:21:08.815Z,977.14
2022-07-28T09:22:08.744Z,977.14
2022-07-28T09:23:43.401Z,977.14
2022-07-28T09:24:08.607Z,977.16
2022-07-28T09:25:08.531Z,977.11
2022-07-28T09:26:12.576Z,977.06
2022-07-28T09:27:08.391Z,977.10
2022-07-28T09:28:08.329Z,977.17
2022-07-28T09:29:08.254Z,977.05
2022-07-28T09:30:08.183Z,977.01
2022-07-28T09:31:08.126Z,977.03
2022-07-28T09:32:08.094Z,977.08
2022-07-28T09:33:07.976Z,977.09
2022-07-28T09:34:07.905Z,977.06
2022-07-28T09:35:07.835Z,977.02
2022-07-28T09:36:07.764Z,977.02
2022-07-28T09:37:07.702Z,976.94
2022-07-28T09:38:07.628Z,977.03
2022-07-28T09:39:07.555Z,977.02
2022-07-28T09:40:07.484Z,977.01
2022-07-28T09:41:07.411Z,977.04
2022-07-28T09:42:07.349Z,977.07
2022-07-28T09:43:07.276Z,977.00
2022-07-28T09:44:07.208Z,976.97
2022-07-28T09:45:22.352Z,977.03
2022-07-28T09:46:07.205Z,977.04
2022-07-28T09:47:07.206Z,977.04
2022-07-28T09:48:07.146Z,977.00
2022-07-28T09:49:06.993Z,977.03
2022-07-28T09:50:06.896Z,977.06
2022-07-28T09:51:06.719Z,977.02
2022-07-28T09:52:06.654Z,976.98
2022-07-28T09:53:06.583Z,976.97
2022-07-28T09:54:06.513Z,977.10
2022-07-28T09:55:06.447Z,977.10
2022-07-28T09:56:06.376Z,976.99
2022-07-28T09:57:06.302Z,977.01
2022-07-28T09:58:06.235Z,977.00
2022-07-28T09:59:06.870Z,976.94
2022-07-28T10:00:06.098Z,976.91
2022-07-28T10:01:06.098Z,976.95
2022-07-28T10:02:06.053Z,976.97
2022-07-28T10:03:05.930Z,976.94
2022-07-28T10:04:05.822Z,976.92
2022-07-28T10:05:05.754Z,976.94
2022-07-28T10:06:05.688Z,976.94
2022-07-28T10:07:05.633Z,976.93
2022-07-28T10:08:05.551Z,976.91
2022-07-28T10:09:05.481Z,976.88
2022-07-28T10:10:05.409Z,976.84
2022-07-28T10:11:05.336Z,976.88
2022-07-28T10:12:05.270Z,976.83
2022-07-28T10:13:05.201Z,976.82
2022-07-28T10:14:05.130Z,976.81
2022-07-28T10:15:05.064Z,976.78
2022-07-28T10:16:05.030Z,976.78
2022-07-28T10:17:06.295Z,976.81
2022-07-28T10:18:04.862Z,976.80
2022-07-28T10:19:04.793Z,976.80
2022-07-28T10:20:04.721Z,976.77
2022-07-28T10:21:04.651Z,976.75
2022-07-28T10:22:04.588Z,976.75
2022-07-28T10:23:04.513Z,976.75
2022-07-28T10:24:04.449Z,976.77
2022-07-28T10:25:04.397Z,976.72
2022-07-28T10:26:04.313Z,976.76
2022-07-28T10:27:04.246Z,976.75
2022-07-28T10:28:04.176Z,976.73
2022-07-28T10:29:04.108Z,976.77
2022-07-28T10:30:04.038Z,976.69
2022-07-28T10:31:04.045Z,976.71
2022-07-28T10:32:03.911Z,976.68
2022-07-28T10:33:03.834Z,976.63
2022-07-28T10:34:03.770Z,976.63
2022-07-28T10:35:03.701Z,976.56
2022-07-28T10:36:03.644Z,976.53
2022-07-28T10:37:03.559Z,976.53
2022-07-28T10:38:03.502Z,976.56
2022-07-28T10:39:03.428Z,976.55
2022-07-28T10:40:09.412Z,976.59
2022-07-28T10:41:03.287Z,976.54
2022-07-28T10:42:03.222Z,976.52
2022-07-28T10:43:03.165Z,976.49
2022-07-28T10:44:03.088Z,976.54
2022-07-28T10:45:03.019Z,976.57
2022-07-28T10:46:06.196Z,976.54
2022-07-28T10:47:02.912Z,976.51
2022-07-28T10:48:02.818Z,976.56
2022-07-28T10:49:03.680Z,976.55
2022-07-28T10:50:02.686Z,976.54
2022-07-28T10:51:02.612Z,976.55
2022-07-28T10:52:08.725Z,976.51
2022-07-28T10:53:02.479Z,976.48
2022-07-28T10:54:02.415Z,976.50
2022-07-28T10:55:02.342Z,976.48
2022-07-28T10:56:02.272Z,976.46
2022-07-28T10:57:04.900Z,976.46
2022-07-28T10:58:11.649Z,976.43
2022-07-28T10:59:04.903Z,976.41
2022-07-28T11:00:12.321Z,976.40
2022-07-28T11:01:05.942Z,976.43
2022-07-28T11:02:01.930Z,976.46
2022-07-28T11:03:01.939Z,976.46
2022-07-28T11:04:01.809Z,976.40
2022-07-28T11:05:01.666Z,976.45
2022-07-28T11:06:01.600Z,976.43
2022-07-28T11:07:01.527Z,976.42
2022-07-28T11:08:01.472Z,976.45
2022-07-28T11:09:01.400Z,976.41
2022-07-28T11:10:01.326Z,976.41
2022-07-28T11:11:07.723Z,976.34
2022-07-28T11:12:01.195Z,976.34
2022-07-28T11:13:01.124Z,976.33
2022-07-28T11:14:01.073Z,976.31
2022-07-28T11:15:18.265Z,976.30
2022-07-28T11:16:00.924Z,976.38
2022-07-28T11:17:00.971Z,976.33
2022-07-28T11:18:00.796Z,976.35
2022-07-28T11:19:00.719Z,976.29
2022-07-28T11:20:16.821Z,976.28
2022-07-28T11:21:00.765Z,976.23
2022-07-28T11:22:00.519Z,976.25
2022-07-28T11:23:00.454Z,976.26
2022-07-28T11:24:00.387Z,976.25
2022-07-28T11:25:00.319Z,976.28
2022-07-28T11:26:00.255Z,976.26
2022-07-28T11:27:04.045Z,976.19
2022-07-28T11:28:00.117Z,976.17
2022-07-28T11:29:00.058Z,976.13
2022-07-28T11:29:59.986Z,976.12
2022-07-28T11:30:59.979Z,976.18
2022-07-28T11:31:59.851Z,976.13
2022-07-28T11:32:59.794Z,976.12
2022-07-28T11:33:59.721Z,976.09
2022-07-28T11:34:59.649Z,976.11
2022-07-28T11:35:59.602Z,976.14
2022-07-28T11:36:59.516Z,976.10
2022-07-28T11:37:59.449Z,976.10
2022-07-28T11:38:59.379Z,976.09
2022-07-28T11:39:59.313Z,976.15
2022-07-28T11:40:59.254Z,976.13
2022-07-28T11:41:59.193Z,976.12
2022-07-28T11:42:59.111Z,976.15
2022-07-28T11:43:59.058Z,976.18
2022-07-28T11:44:58.987Z,976.18
2022-07-28T11:45:58.988Z,976.14
2022-07-28T11:46:58.847Z,976.17
2022-07-28T11:47:58.787Z,976.14
2022-07-28T11:48:58.768Z,976.16
2022-07-28T11:49:58.642Z,976.18
2022-07-28T11:50:58.576Z,976.15
2022-07-28T11:51:58.509Z,976.15
2022-07-28T11:52:58.442Z,976.14
2022-07-28T11:53:58.372Z,976.13
2022-07-28T11:54:58.324Z,976.10
2022-07-28T11:56:02.942Z,976.10
2022-07-28T11:56:58.175Z,976.05
2022-07-28T11:57:58.105Z,976.12
2022-07-28T11:58:58.040Z,976.05
2022-07-28T11:59:57.971Z,976.09
2022-07-28T12:00:57.901Z,976.12
2022-07-28T12:01:57.895Z,976.05
2022-07-28T12:02:57.769Z,976.04
2022-07-28T12:03:57.708Z,976.09
2022-07-28T12:04:57.701Z,976.06
2022-07-28T12:05:57.568Z,976.07
2022-07-28T12:06:57.505Z,976.08
2022-07-28T12:07:57.439Z,976.02
2022-07-28T12:08:57.370Z,976.05
2022-07-28T12:09:57.304Z,976.02
2022-07-28T12:10:57.318Z,976.02
2022-07-28T12:11:57.170Z,976.04
2022-07-28T12:12:57.126Z,976.00
2022-07-28T12:13:57.035Z,976.01
2022-07-28T12:14:56.970Z,976.05
2022-07-28T12:15:56.903Z,976.04
2022-07-28T12:16:56.894Z,976.08
2022-07-28T12:17:56.772Z,976.09
2022-07-28T12:18:56.716Z,976.06
2022-07-28T12:19:56.643Z,976.07
2022-07-28T12:20:58.567Z,976.07
2022-07-28T12:21:56.502Z,976.02
2022-07-28T12:22:56.459Z,975.98
2022-07-28T12:23:56.371Z,976.05
2022-07-28T12:24:56.300Z,975.98
2022-07-28T12:25:56.247Z,976.03
2022-07-28T12:26:56.169Z,975.96
2022-07-28T12:27:56.110Z,975.99